sensor_id;sensor_type;location;lat;lon;timestamp;temperature;humidity
32147;DHT22;32190;49.112;8.598;2023-08-30T00:05:15;21.80;54.50
32147;DHT22;32190;49.112;8.598;2023-08-30T00:11:05;21.80;54.50
32147;DHT22;32190;49.112;8.598;2023-08-30T00:16:56;21.70;54.50
32147;DHT22;32190;49.112;8.598;2023-08-30T00:22:48;21.70;54.60
32147;DHT22;32190;49.112;8.598;2023-08-30T00:28:41;21.70;54.60
32147;DHT22;32190;49.112;8.598;2023-08-30T00:34:31;21.70;54.60
32147;DHT22;32190;49.112;8.598;2023-08-30T00:40:25;21.60;54.60
32147;DHT22;32190;49.112;8.598;2023-08-30T00:46:16;21.70;54.70
32147;DHT22;32190;49.112;8.598;2023-08-30T00:52:10;21.60;54.60
32147;DHT22;32190;49.112;8.598;2023-08-30T00:58:02;21.60;54.60
32147;DHT22;32190;49.112;8.598;2023-08-30T01:03:52;21.70;54.60
32147;DHT22;32190;49.112;8.598;2023-08-30T01:09:43;21.60;54.50
32147;DHT22;32190;49.112;8.598;2023-08-30T01:15:34;21.60;54.50
32147;DHT22;32190;49.112;8.598;2023-08-30T01:22:05;21.50;54.50
32147;DHT22;32190;49.112;8.598;2023-08-30T01:28:01;21.40;54.70
32147;DHT22;32190;49.112;8.598;2023-08-30T01:33:53;21.40;54.70
32147;DHT22;32190;49.112;8.598;2023-08-30T01:39:46;21.30;54.70
32147;DHT22;32190;49.112;8.598;2023-08-30T01:45:43;21.30;54.70
32147;DHT22;32190;49.112;8.598;2023-08-30T02:16:25;21.20;54.80
32147;DHT22;32190;49.112;8.598;2023-08-30T02:22:16;21.20;54.90
32147;DHT22;32190;49.112;8.598;2023-08-30T02:28:07;21.20;54.80
32147;DHT22;32190;49.112;8.598;2023-08-30T02:33:57;21.20;55.00
32147;DHT22;32190;49.112;8.598;2023-08-30T02:39:48;21.10;55.10
32147;DHT22;32190;49.112;8.598;2023-08-30T02:45:38;21.10;55.10
32147;DHT22;32190;49.112;8.598;2023-08-30T02:51:29;21.10;55.10
32147;DHT22;32190;49.112;8.598;2023-08-30T02:57:20;21.00;55.10
32147;DHT22;32190;49.112;8.598;2023-08-30T03:03:10;21.00;55.20
32147;DHT22;32190;49.112;8.598;2023-08-30T03:09:01;21.10;55.30
32147;DHT22;32190;49.112;8.598;2023-08-30T03:14:54;21.00;55.30
32147;DHT22;32190;49.112;8.598;2023-08-30T03:20:44;20.90;55.40
32147;DHT22;32190;49.112;8.598;2023-08-30T03:26:35;21.00;55.40
32147;DHT22;32190;49.112;8.598;2023-08-30T03:32:25;20.90;55.50
32147;DHT22;32190;49.112;8.598;2023-08-30T03:38:16;20.90;55.50
32147;DHT22;32190;49.112;8.598;2023-08-30T03:44:06;20.90;55.50
32147;DHT22;32190;49.112;8.598;2023-08-30T03:49:57;20.90;55.40
32147;DHT22;32190;49.112;8.598;2023-08-30T03:55:49;20.90;55.50
32147;DHT22;32190;49.112;8.598;2023-08-30T04:01:39;20.90;55.40
32147;DHT22;32190;49.112;8.598;2023-08-30T04:07:30;20.90;55.50
32147;DHT22;32190;49.112;8.598;2023-08-30T04:13:21;20.90;55.50
32147;DHT22;32190;49.112;8.598;2023-08-30T04:19:14;21.00;55.50
32147;DHT22;32190;49.112;8.598;2023-08-30T04:25:05;20.90;55.50
32147;DHT22;32190;49.112;8.598;2023-08-30T04:30:56;20.90;55.60
32147;DHT22;32190;49.112;8.598;2023-08-30T04:36:47;20.80;55.60
32147;DHT22;32190;49.112;8.598;2023-08-30T04:42:38;20.80;55.60
32147;DHT22;32190;49.112;8.598;2023-08-30T04:48:30;20.80;55.60
32147;DHT22;32190;49.112;8.598;2023-08-30T04:54:20;20.80;55.70
32147;DHT22;32190;49.112;8.598;2023-08-30T05:00:12;20.80;55.60
32147;DHT22;32190;49.112;8.598;2023-08-30T05:06:03;20.70;55.70
32147;DHT22;32190;49.112;8.598;2023-08-30T05:11:54;20.70;55.80
32147;DHT22;32190;49.112;8.598;2023-08-30T05:17:44;20.60;56.00
32147;DHT22;32190;49.112;8.598;2023-08-30T05:23:35;20.60;56.00
32147;DHT22;32190;49.112;8.598;2023-08-30T05:29:25;20.60;56.00
32147;DHT22;32190;49.112;8.598;2023-08-30T05:35:16;20.60;56.00
32147;DHT22;32190;49.112;8.598;2023-08-30T05:41:07;20.70;56.00
32147;DHT22;32190;49.112;8.598;2023-08-30T05:46:57;20.70;56.00
32147;DHT22;32190;49.112;8.598;2023-08-30T05:52:48;20.70;55.90
32147;DHT22;32190;49.112;8.598;2023-08-30T05:58:39;20.70;55.80
32147;DHT22;32190;49.112;8.598;2023-08-30T06:04:30;20.70;55.80
32147;DHT22;32190;49.112;8.598;2023-08-30T06:10:20;20.70;55.90
32147;DHT22;32190;49.112;8.598;2023-08-30T06:16:11;20.80;56.00
32147;DHT22;32190;49.112;8.598;2023-08-30T06:22:01;20.70;56.00
32147;DHT22;32190;49.112;8.598;2023-08-30T06:27:57;20.80;56.00
32147;DHT22;32190;49.112;8.598;2023-08-30T06:33:48;20.80;56.00
32147;DHT22;32190;49.112;8.598;2023-08-30T06:39:41;20.90;56.10
32147;DHT22;32190;49.112;8.598;2023-08-30T06:45:31;20.90;56.20
32147;DHT22;32190;49.112;8.598;2023-08-30T06:51:22;20.90;56.20
32147;DHT22;32190;49.112;8.598;2023-08-30T06:57:12;20.90;56.20
32147;DHT22;32190;49.112;8.598;2023-08-30T07:03:03;21.00;56.20
32147;DHT22;32190;49.112;8.598;2023-08-30T07:09:23;21.00;56.20
32147;DHT22;32190;49.112;8.598;2023-08-30T07:40:18;21.40;56.30
32147;DHT22;32190;49.112;8.598;2023-08-30T07:46:11;21.50;56.20
32147;DHT22;32190;49.112;8.598;2023-08-30T07:52:01;21.60;56.10
32147;DHT22;32190;49.112;8.598;2023-08-30T07:57:52;21.70;56.00
32147;DHT22;32190;49.112;8.598;2023-08-30T08:03:43;21.80;55.80
32147;DHT22;32190;49.112;8.598;2023-08-30T08:09:33;21.90;55.80
32147;DHT22;32190;49.112;8.598;2023-08-30T08:15:24;22.00;55.60
32147;DHT22;32190;49.112;8.598;2023-08-30T08:21:14;22.00;55.50
32147;DHT22;32190;49.112;8.598;2023-08-30T08:27:05;22.00;55.60
32147;DHT22;32190;49.112;8.598;2023-08-30T08:32:57;22.00;55.50
32147;DHT22;32190;49.112;8.598;2023-08-30T08:38:48;22.10;55.40
32147;DHT22;32190;49.112;8.598;2023-08-30T08:44:39;22.20;55.50
32147;DHT22;32190;49.112;8.598;2023-08-30T08:50:34;22.30;55.30
32147;DHT22;32190;49.112;8.598;2023-08-30T08:56:25;22.20;55.00
32147;DHT22;32190;49.112;8.598;2023-08-30T09:02:16;22.30;55.00
32147;DHT22;32190;49.112;8.598;2023-08-30T09:08:10;22.30;55.00
32147;DHT22;32190;49.112;8.598;2023-08-30T09:14:02;22.40;55.00
32147;DHT22;32190;49.112;8.598;2023-08-30T09:19:52;22.50;55.00
32147;DHT22;32190;49.112;8.598;2023-08-30T09:25:44;22.50;54.80
32147;DHT22;32190;49.112;8.598;2023-08-30T09:31:36;22.50;54.70
32147;DHT22;32190;49.112;8.598;2023-08-30T10:09:51;23.10;53.70
32147;DHT22;32190;49.112;8.598;2023-08-30T10:16:06;23.20;53.70
32147;DHT22;32190;49.112;8.598;2023-08-30T10:22:02;23.20;53.50
32147;DHT22;32190;49.112;8.598;2023-08-30T10:27:55;23.30;53.40
32147;DHT22;32190;49.112;8.598;2023-08-30T10:33:53;23.40;53.40
32147;DHT22;32190;49.112;8.598;2023-08-30T10:39:48;23.60;53.40
32147;DHT22;32190;49.112;8.598;2023-08-30T10:45:40;23.70;53.10
32147;DHT22;32190;49.112;8.598;2023-08-30T10:51:36;23.80;53.20
32147;DHT22;32190;49.112;8.598;2023-08-30T10:57:30;23.90;52.80
32147;DHT22;32190;49.112;8.598;2023-08-30T11:03:20;24.00;52.90
32147;DHT22;32190;49.112;8.598;2023-08-30T11:09:19;24.00;52.60
32147;DHT22;32190;49.112;8.598;2023-08-30T11:15:10;24.10;53.00
32147;DHT22;32190;49.112;8.598;2023-08-30T11:21:02;24.10;52.60
32147;DHT22;32190;49.112;8.598;2023-08-30T11:26:54;24.20;52.50
32147;DHT22;32190;49.112;8.598;2023-08-30T11:32:44;24.30;52.00
32147;DHT22;32190;49.112;8.598;2023-08-30T11:38:37;24.30;52.00
32147;DHT22;32190;49.112;8.598;2023-08-30T11:44:31;24.30;52.70
32147;DHT22;32190;49.112;8.598;2023-08-30T11:50:22;24.40;51.70
32147;DHT22;32190;49.112;8.598;2023-08-30T11:56:13;24.50;51.80
32147;DHT22;32190;49.112;8.598;2023-08-30T12:02:04;24.50;51.50
32147;DHT22;32190;49.112;8.598;2023-08-30T12:38:44;24.90;50.20
32147;DHT22;32190;49.112;8.598;2023-08-30T12:44:34;25.00;50.20
32147;DHT22;32190;49.112;8.598;2023-08-30T12:50:25;25.10;49.70
32147;DHT22;32190;49.112;8.598;2023-08-30T14:40:40;22.80;53.80
32147;DHT22;32190;49.112;8.598;2023-08-30T14:46:31;23.90;52.40
32147;DHT22;32190;49.112;8.598;2023-08-30T14:52:21;24.80;51.00
32147;DHT22;32190;49.112;8.598;2023-08-30T14:58:13;25.60;50.30
32147;DHT22;32190;49.112;8.598;2023-08-30T15:04:04;26.10;49.40
32147;DHT22;32190;49.112;8.598;2023-08-30T15:09:54;26.50;48.30
32147;DHT22;32190;49.112;8.598;2023-08-30T15:15:45;26.90;48.10
32147;DHT22;32190;49.112;8.598;2023-08-30T15:21:35;27.20;47.80
32147;DHT22;32190;49.112;8.598;2023-08-30T15:27:26;27.40;47.20
32147;DHT22;32190;49.112;8.598;2023-08-30T15:33:17;27.40;46.40
32147;DHT22;32190;49.112;8.598;2023-08-30T15:39:08;27.40;46.70
32147;DHT22;32190;49.112;8.598;2023-08-30T15:45:00;27.50;46.80
32147;DHT22;32190;49.112;8.598;2023-08-30T15:50:51;27.50;46.30
32147;DHT22;32190;49.112;8.598;2023-08-30T16:10:07;27.60;45.90
32147;DHT22;32190;49.112;8.598;2023-08-30T16:15:58;27.60;44.60
32147;DHT22;32190;49.112;8.598;2023-08-30T16:21:50;27.80;44.40
32147;DHT22;32190;49.112;8.598;2023-08-30T16:27:44;27.90;44.50
32147;DHT22;32190;49.112;8.598;2023-08-30T16:33:34;27.90;44.40
32147;DHT22;32190;49.112;8.598;2023-08-30T16:39:25;27.90;44.70
32147;DHT22;32190;49.112;8.598;2023-08-30T16:45:16;27.90;44.70
32147;DHT22;32190;49.112;8.598;2023-08-30T16:51:06;27.80;44.30
32147;DHT22;32190;49.112;8.598;2023-08-30T16:56:58;27.70;44.70
32147;DHT22;32190;49.112;8.598;2023-08-30T17:02:49;27.60;44.60
32147;DHT22;32190;49.112;8.598;2023-08-30T17:08:41;27.50;44.90
32147;DHT22;32190;49.112;8.598;2023-08-30T17:14:32;27.40;44.80
32147;DHT22;32190;49.112;8.598;2023-08-30T17:20:23;27.30;45.10
32147;DHT22;32190;49.112;8.598;2023-08-30T17:26:13;27.20;44.80
32147;DHT22;32190;49.112;8.598;2023-08-30T17:32:04;27.10;44.70
32147;DHT22;32190;49.112;8.598;2023-08-30T17:37:55;27.10;44.90
32147;DHT22;32190;49.112;8.598;2023-08-30T17:43:45;27.00;45.40
32147;DHT22;32190;49.112;8.598;2023-08-30T17:49:36;27.00;44.80
32147;DHT22;32190;49.112;8.598;2023-08-30T17:55:26;26.90;45.30
32147;DHT22;32190;49.112;8.598;2023-08-30T18:01:17;26.80;44.70
32147;DHT22;32190;49.112;8.598;2023-08-30T18:07:08;26.70;45.00
32147;DHT22;32190;49.112;8.598;2023-08-30T18:12:59;26.60;45.30
32147;DHT22;32190;49.112;8.598;2023-08-30T18:18:49;26.50;45.40
32147;DHT22;32190;49.112;8.598;2023-08-30T18:24:40;26.40;45.40
32147;DHT22;32190;49.112;8.598;2023-08-30T18:30:32;26.40;45.40
32147;DHT22;32190;49.112;8.598;2023-08-30T18:36:24;26.30;45.00
32147;DHT22;32190;49.112;8.598;2023-08-30T18:42:14;26.30;44.90
32147;DHT22;32190;49.112;8.598;2023-08-30T18:48:05;26.20;44.70
32147;DHT22;32190;49.112;8.598;2023-08-30T18:53:56;26.10;44.70
32147;DHT22;32190;49.112;8.598;2023-08-30T18:59:47;25.70;45.50
32147;DHT22;32190;49.112;8.598;2023-08-30T19:05:37;25.30;46.70
32147;DHT22;32190;49.112;8.598;2023-08-30T19:11:29;24.90;47.30
32147;DHT22;32190;49.112;8.598;2023-08-30T19:17:20;24.70;48.00
32147;DHT22;32190;49.112;8.598;2023-08-30T19:23:10;24.50;48.30
32147;DHT22;32190;49.112;8.598;2023-08-30T19:29:01;24.60;48.70
32147;DHT22;32190;49.112;8.598;2023-08-30T19:34:51;24.60;48.70
32147;DHT22;32190;49.112;8.598;2023-08-30T19:40:52;24.70;48.80
32147;DHT22;32190;49.112;8.598;2023-08-30T19:46:43;24.70;49.30
32147;DHT22;32190;49.112;8.598;2023-08-30T19:52:33;24.70;49.10
32147;DHT22;32190;49.112;8.598;2023-08-30T19:58:24;24.70;49.40
32147;DHT22;32190;49.112;8.598;2023-08-30T20:04:15;24.70;49.40
32147;DHT22;32190;49.112;8.598;2023-08-30T20:10:06;24.70;49.50
32147;DHT22;32190;49.112;8.598;2023-08-30T20:16:02;24.60;49.50
32147;DHT22;32190;49.112;8.598;2023-08-30T20:21:53;24.60;49.70
32147;DHT22;32190;49.112;8.598;2023-08-30T20:27:44;24.60;50.10
32147;DHT22;32190;49.112;8.598;2023-08-30T20:33:34;24.50;49.70
32147;DHT22;32190;49.112;8.598;2023-08-30T20:39:25;24.40;49.90
32147;DHT22;32190;49.112;8.598;2023-08-30T20:45:16;24.30;50.00
32147;DHT22;32190;49.112;8.598;2023-08-30T20:51:06;24.30;50.20
32147;DHT22;32190;49.112;8.598;2023-08-30T20:56:57;24.30;50.40
32147;DHT22;32190;49.112;8.598;2023-08-30T21:02:47;24.30;50.60
32147;DHT22;32190;49.112;8.598;2023-08-30T21:08:38;24.30;50.70
32147;DHT22;32190;49.112;8.598;2023-08-30T21:14:28;24.20;50.80
32147;DHT22;32190;49.112;8.598;2023-08-30T21:20:19;24.20;50.90
32147;DHT22;32190;49.112;8.598;2023-08-30T21:26:12;24.20;51.00
32147;DHT22;32190;49.112;8.598;2023-08-30T21:32:03;24.10;51.20
32147;DHT22;32190;49.112;8.598;2023-08-30T21:37:54;24.10;51.20
32147;DHT22;32190;49.112;8.598;2023-08-30T21:43:44;24.00;51.20
32147;DHT22;32190;49.112;8.598;2023-08-30T21:49:35;24.00;51.30
32147;DHT22;32190;49.112;8.598;2023-08-30T21:55:25;24.00;51.50
32147;DHT22;32190;49.112;8.598;2023-08-30T22:01:16;23.90;51.50
32147;DHT22;32190;49.112;8.598;2023-08-30T22:07:07;23.90;51.60
32147;DHT22;32190;49.112;8.598;2023-08-30T22:12:58;23.90;51.80
32147;DHT22;32190;49.112;8.598;2023-08-30T22:18:49;23.80;51.80
32147;DHT22;32190;49.112;8.598;2023-08-30T22:24:40;23.80;51.80
32147;DHT22;32190;49.112;8.598;2023-08-30T22:30:31;23.70;51.90
32147;DHT22;32190;49.112;8.598;2023-08-30T22:36:22;23.60;52.00
32147;DHT22;32190;49.112;8.598;2023-08-30T22:42:12;23.60;52.60
32147;DHT22;32190;49.112;8.598;2023-08-30T22:48:04;23.50;52.10
32147;DHT22;32190;49.112;8.598;2023-08-30T22:53:55;23.50;52.20
32147;DHT22;32190;49.112;8.598;2023-08-30T22:59:46;23.40;52.20
32147;DHT22;32190;49.112;8.598;2023-08-30T23:05:38;23.30;52.30
32147;DHT22;32190;49.112;8.598;2023-08-30T23:11:30;23.30;52.50
32147;DHT22;32190;49.112;8.598;2023-08-30T23:17:21;23.20;52.40
32147;DHT22;32190;49.112;8.598;2023-08-30T23:23:11;23.10;52.60
32147;DHT22;32190;49.112;8.598;2023-08-30T23:29:02;23.10;52.60
32147;DHT22;32190;49.112;8.598;2023-08-30T23:34:53;22.90;52.70
32147;DHT22;32190;49.112;8.598;2023-08-30T23:40:44;22.90;52.80
32147;DHT22;32190;49.112;8.598;2023-08-30T23:46:34;22.80;53.00
32147;DHT22;32190;49.112;8.598;2023-08-30T23:52:25;22.70;53.00
32147;DHT22;32190;49.112;8.598;2023-08-30T23:58:16;22.60;53.00
